createdAt,value
2023-03-20T00:00:01.450Z,2.80
2023-03-20T00:01:01.737Z,2.60
2023-03-20T00:02:01.423Z,4.20
2023-03-20T00:03:01.408Z,4.10
2023-03-20T00:04:01.452Z,2.40
2023-03-20T00:05:01.523Z,5.00
2023-03-20T00:06:01.344Z,2.80
2023-03-20T00:07:01.357Z,3.70
2023-03-20T00:08:01.632Z,3.50
2023-03-20T00:09:07.218Z,3.60
2023-03-20T00:10:01.338Z,2.80
2023-03-20T00:11:01.358Z,2.70
2023-03-20T00:12:01.305Z,4.70
2023-03-20T00:13:01.302Z,4.10
2023-03-20T00:14:01.273Z,4.30
2023-03-20T00:15:01.549Z,4.00
2023-03-20T00:16:01.304Z,5.00
2023-03-20T00:17:01.305Z,4.20
2023-03-20T00:18:01.236Z,2.80
2023-03-20T00:19:01.234Z,1.70
2023-03-20T00:20:01.216Z,2.80
2023-03-20T00:21:01.217Z,4.40
2023-03-20T00:22:01.466Z,4.50
2023-03-20T00:23:01.236Z,2.70
2023-03-20T00:24:01.198Z,2.10
2023-03-20T00:25:01.168Z,4.20
2023-03-20T00:26:01.138Z,2.80
2023-03-20T00:27:01.135Z,1.80
2023-03-20T00:28:01.119Z,2.20
2023-03-20T00:29:01.421Z,2.80
2023-03-20T00:30:01.119Z,2.70
2023-03-20T00:31:01.130Z,3.30
2023-03-20T00:32:01.128Z,2.90
2023-03-20T00:33:01.129Z,2.80
2023-03-20T00:34:01.060Z,2.60
2023-03-20T00:35:01.096Z,2.70
2023-03-20T00:36:01.135Z,4.30
2023-03-20T00:37:01.025Z,2.00
2023-03-20T00:38:01.018Z,3.90
2023-03-20T00:39:00.998Z,3.50
2023-03-20T00:40:00.995Z,5.30
2023-03-20T00:41:01.062Z,3.90
2023-03-20T00:42:01.249Z,3.50
2023-03-20T00:43:00.971Z,3.40
2023-03-20T00:44:00.957Z,3.30
2023-03-20T00:45:00.937Z,2.80
2023-03-20T00:46:00.918Z,3.10
2023-03-20T00:47:01.055Z,3.90
2023-03-20T00:48:00.946Z,2.40
2023-03-20T00:49:00.903Z,2.10
2023-03-20T00:50:00.896Z,3.50
2023-03-20T00:51:00.885Z,4.00
2023-03-20T00:52:00.874Z,4.40
2023-03-20T00:53:00.894Z,3.90
2023-03-20T00:54:00.845Z,2.80
2023-03-20T00:55:01.131Z,3.60
2023-03-20T00:56:00.810Z,2.90
2023-03-20T00:57:00.848Z,4.70
2023-03-20T00:58:00.836Z,2.80
2023-03-20T00:59:00.835Z,3.70
2023-03-20T01:00:00.771Z,3.60
2023-03-20T01:01:00.826Z,4.00
2023-03-20T01:02:01.100Z,3.70
2023-03-20T01:03:00.757Z,3.20
2023-03-20T01:04:00.736Z,4.90
2023-03-20T01:05:00.773Z,3.70
2023-03-20T01:06:00.709Z,4.70
2023-03-20T01:07:00.790Z,2.90
2023-03-20T01:08:00.683Z,3.90
2023-03-20T01:09:01.997Z,3.40
2023-03-20T01:10:00.682Z,4.50
2023-03-20T01:11:00.703Z,2.90
2023-03-20T01:12:00.659Z,3.00
2023-03-20T01:13:00.654Z,5.60
2023-03-20T01:14:00.637Z,3.30
2023-03-20T01:15:00.688Z,5.00
2023-03-20T01:16:00.764Z,2.60
2023-03-20T01:17:00.656Z,3.30
2023-03-20T01:18:00.575Z,5.20
2023-03-20T01:19:00.586Z,5.50
2023-03-20T01:20:00.607Z,2.60
2023-03-20T01:21:00.603Z,3.40
2023-03-20T01:22:01.874Z,3.70
2023-03-20T01:23:00.619Z,3.90
2023-03-20T01:24:00.514Z,4.50
2023-03-20T01:25:00.526Z,4.60
2023-03-20T01:26:00.490Z,5.10
2023-03-20T01:27:00.499Z,4.60
2023-03-20T01:28:00.482Z,4.80
2023-03-20T01:29:00.521Z,4.90
2023-03-20T01:30:00.501Z,3.60
2023-03-20T01:31:00.520Z,2.80
2023-03-20T01:32:00.569Z,3.60
2023-03-20T01:33:00.559Z,2.40
2023-03-20T01:34:00.699Z,6.20
2023-03-20T01:35:00.461Z,4.10
2023-03-20T01:36:00.413Z,4.10
2023-03-20T01:37:00.403Z,4.30
2023-03-20T01:38:00.365Z,4.50
2023-03-20T01:39:00.408Z,4.00
2023-03-20T01:40:00.352Z,5.10
2023-03-20T01:41:00.385Z,3.90
2023-03-20T01:42:00.328Z,3.70
2023-03-20T01:43:00.340Z,4.40
2023-03-20T01:44:00.314Z,6.00
2023-03-20T01:45:00.331Z,4.90
2023-03-20T01:46:00.669Z,3.50
2023-03-20T01:47:00.380Z,3.60
2023-03-20T01:48:00.270Z,4.20
2023-03-20T01:49:00.282Z,3.00
2023-03-20T01:50:00.281Z,4.80
2023-03-20T01:51:00.263Z,6.10
2023-03-20T01:52:00.236Z,4.60
2023-03-20T01:53:00.581Z,5.50
2023-03-20T01:54:00.213Z,3.20
2023-03-20T01:55:00.199Z,3.90
2023-03-20T01:56:00.215Z,5.60
2023-03-20T01:57:00.204Z,5.50
2023-03-20T01:58:00.235Z,5.20
2023-03-20T01:59:00.201Z,3.20
2023-03-20T02:00:00.463Z,3.90
2023-03-20T02:01:00.254Z,5.50
2023-03-20T02:02:00.137Z,4.30
2023-03-20T02:03:00.126Z,5.60
2023-03-20T02:04:00.121Z,4.40
2023-03-20T02:05:00.287Z,3.50
2023-03-20T02:06:00.129Z,3.20
2023-03-20T02:07:00.359Z,4.60
2023-03-20T02:08:00.316Z,4.80
2023-03-20T02:09:00.081Z,3.90
2023-03-20T02:10:00.035Z,5.60
2023-03-20T02:11:00.139Z,5.50
2023-03-20T02:12:00.021Z,3.80
2023-03-20T02:13:00.102Z,2.90
2023-03-20T02:14:00.272Z,4.40
2023-03-20T02:15:00.022Z,5.20
2023-03-20T02:15:59.998Z,3.70
2023-03-20T02:17:00.139Z,3.70
2023-03-20T02:17:59.964Z,4.30
2023-03-20T02:18:59.950Z,3.40
2023-03-20T02:19:59.924Z,2.90
2023-03-20T02:21:00.221Z,4.90
2023-03-20T02:21:59.935Z,3.50
2023-03-20T02:22:59.964Z,5.60
2023-03-20T02:23:59.922Z,5.10
2023-03-20T02:24:59.888Z,5.10
2023-03-20T02:25:59.887Z,3.10
2023-03-20T02:26:59.872Z,3.70
2023-03-20T02:28:00.152Z,4.50
2023-03-20T02:29:00.041Z,4.60
2023-03-20T02:29:59.832Z,3.50
2023-03-20T02:30:59.881Z,4.50
2023-03-20T02:31:59.812Z,4.00
2023-03-20T02:32:59.864Z,4.90
2023-03-20T02:33:59.803Z,4.20
2023-03-20T02:35:00.121Z,5.40
2023-03-20T02:35:59.814Z,4.30
2023-03-20T02:36:59.761Z,4.80
2023-03-20T02:37:59.740Z,5.30
2023-03-20T02:38:59.730Z,4.80
2023-03-20T02:39:59.754Z,3.60
2023-03-20T02:40:59.760Z,3.90
2023-03-20T02:41:59.978Z,4.90
2023-03-20T02:42:59.710Z,5.30
2023-03-20T02:43:59.700Z,3.00
2023-03-20T02:44:59.667Z,4.50
2023-03-20T02:45:59.681Z,3.30
2023-03-20T02:46:59.965Z,4.20
2023-03-20T02:47:59.656Z,4.10
2023-03-20T02:48:59.950Z,4.40
2023-03-20T02:49:59.636Z,3.50
2023-03-20T02:50:59.760Z,3.40
2023-03-20T02:51:59.598Z,4.00
2023-03-20T02:52:59.639Z,4.10
2023-03-20T02:53:59.568Z,3.40
2023-03-20T02:54:59.580Z,3.40
2023-03-20T02:55:59.828Z,3.20
2023-03-20T02:56:59.594Z,3.70
2023-03-20T02:57:59.539Z,2.30
2023-03-20T02:58:59.672Z,2.20
2023-03-20T02:59:59.511Z,3.80
2023-03-20T03:00:59.493Z,3.30
2023-03-20T03:01:59.512Z,4.40
2023-03-20T03:02:59.844Z,4.10
2023-03-20T03:03:59.543Z,3.90
2023-03-20T03:04:59.494Z,3.30
2023-03-20T03:05:59.446Z,4.00
2023-03-20T03:06:59.441Z,4.60
2023-03-20T03:07:59.436Z,3.00
2023-03-20T03:08:59.445Z,3.90
2023-03-20T03:09:59.696Z,4.10
2023-03-20T03:10:59.447Z,3.40
2023-03-20T03:11:59.579Z,3.20
2023-03-20T03:12:59.397Z,3.30
2023-03-20T03:13:59.364Z,4.10
2023-03-20T03:14:59.351Z,5.30
2023-03-20T03:15:59.421Z,2.70
2023-03-20T03:16:59.651Z,4.50
2023-03-20T03:17:59.320Z,3.40
2023-03-20T03:18:59.361Z,3.50
2023-03-20T03:19:59.298Z,2.70
2023-03-20T03:20:59.298Z,2.50
2023-03-20T03:21:59.285Z,3.90
2023-03-20T03:22:59.312Z,3.00
2023-03-20T03:23:59.537Z,4.20
2023-03-20T03:24:59.302Z,2.80
2023-03-20T03:25:59.237Z,4.30
2023-03-20T03:26:59.271Z,2.50
2023-03-20T03:27:59.274Z,4.10
2023-03-20T03:28:59.237Z,4.80
2023-03-20T03:29:59.208Z,4.30
2023-03-20T03:30:59.474Z,5.10
2023-03-20T03:31:59.193Z,1.80
2023-03-20T03:32:59.194Z,2.20
2023-03-20T03:33:59.190Z,3.50
2023-03-20T03:34:59.184Z,3.20
2023-03-20T03:35:59.165Z,2.40
2023-03-20T03:36:59.127Z,3.40
2023-03-20T03:37:59.390Z,2.60
2023-03-20T03:38:59.099Z,2.80
2023-03-20T03:39:59.093Z,3.60
2023-03-20T03:40:59.108Z,4.30
2023-03-20T03:41:59.089Z,3.80
2023-03-20T03:42:59.075Z,5.20
2023-03-20T03:43:59.047Z,3.00
2023-03-20T03:44:59.351Z,4.10
2023-03-20T03:45:59.043Z,3.80
2023-03-20T03:46:59.149Z,3.50
2023-03-20T03:47:59.009Z,3.60
2023-03-20T03:48:58.994Z,4.50
2023-03-20T03:49:59.067Z,3.90
2023-03-20T03:50:58.968Z,3.50
2023-03-20T03:51:58.996Z,3.90
2023-03-20T03:52:59.003Z,3.50
2023-03-20T03:53:58.950Z,3.30
2023-03-20T03:54:58.947Z,5.10
2023-03-20T03:55:58.972Z,3.80
2023-03-20T03:56:58.946Z,5.10
2023-03-20T03:57:59.196Z,3.60
2023-03-20T03:58:58.933Z,6.40
2023-03-20T03:59:58.884Z,5.20
2023-03-20T04:00:58.876Z,4.60
2023-03-20T04:01:58.921Z,4.20
2023-03-20T04:02:58.865Z,3.70
2023-03-20T04:03:58.841Z,3.30
2023-03-20T04:04:59.260Z,4.20
2023-03-20T04:05:58.920Z,4.30
2023-03-20T04:06:58.808Z,4.90
2023-03-20T04:07:58.793Z,4.20
2023-03-20T04:08:58.785Z,3.40
2023-03-20T04:09:58.776Z,4.40
2023-03-20T04:10:58.795Z,6.30
2023-03-20T04:11:59.037Z,2.40
2023-03-20T04:12:58.785Z,4.20
2023-03-20T04:13:58.777Z,4.80
2023-03-20T04:14:59.786Z,3.70
2023-03-20T04:15:58.747Z,3.60
2023-03-20T04:16:58.744Z,5.00
2023-03-20T04:17:58.714Z,3.30
2023-03-20T04:18:58.960Z,3.60
2023-03-20T04:19:58.698Z,3.00
2023-03-20T04:20:58.678Z,4.00
2023-03-20T04:21:58.647Z,3.10
2023-03-20T04:22:58.669Z,2.90
2023-03-20T04:23:58.641Z,3.00
2023-03-20T04:24:58.622Z,3.20
2023-03-20T04:25:58.902Z,3.20
2023-03-20T04:26:58.619Z,3.10
2023-03-20T04:27:58.605Z,3.20
2023-03-20T04:28:58.624Z,2.80
2023-03-20T04:29:58.586Z,4.10
2023-03-20T04:30:58.624Z,3.30
2023-03-20T04:31:58.560Z,2.80
2023-03-20T04:32:58.600Z,2.50
2023-03-20T04:33:58.548Z,3.90
2023-03-20T04:34:58.552Z,3.60
2023-03-20T04:35:58.589Z,4.30
2023-03-20T04:36:58.502Z,3.70
2023-03-20T04:37:58.506Z,4.40
2023-03-20T04:38:58.818Z,3.00
2023-03-20T04:39:58.473Z,3.10
2023-03-20T04:40:58.510Z,4.30
2023-03-20T04:41:58.458Z,3.80
2023-03-20T04:42:58.436Z,3.40
2023-03-20T04:43:58.441Z,3.60
2023-03-20T04:44:58.413Z,3.80
2023-03-20T04:45:58.439Z,3.00
2023-03-20T04:46:58.416Z,3.20
2023-03-20T04:47:58.399Z,3.70
2023-03-20T04:48:58.366Z,3.00
2023-03-20T04:49:58.394Z,3.20
2023-03-20T04:50:58.349Z,2.50
2023-03-20T04:51:58.344Z,2.60
2023-03-20T04:52:58.398Z,3.80
2023-03-20T04:53:58.323Z,2.70
2023-03-20T04:54:58.303Z,3.20
2023-03-20T04:56:00.644Z,3.90
2023-03-20T04:56:58.592Z,2.30
2023-03-20T04:57:58.286Z,3.20
2023-03-20T04:58:58.339Z,3.10
2023-03-20T04:59:58.270Z,3.80
2023-03-20T05:00:58.321Z,3.90
2023-03-20T05:01:58.246Z,3.30
2023-03-20T05:02:58.220Z,2.80
2023-03-20T05:03:58.549Z,2.70
2023-03-20T05:04:58.252Z,4.50
2023-03-20T05:05:58.184Z,2.60
2023-03-20T05:06:58.184Z,2.30
2023-03-20T05:07:58.178Z,3.50
2023-03-20T05:08:58.177Z,3.20
2023-03-20T05:09:58.187Z,3.30
2023-03-20T05:10:58.519Z,2.70
2023-03-20T05:11:58.142Z,2.40
2023-03-20T05:12:58.113Z,2.40
2023-03-20T05:13:58.100Z,2.90
2023-03-20T05:14:58.109Z,3.90
2023-03-20T05:15:58.096Z,3.40
2023-03-20T05:16:58.196Z,3.90
2023-03-20T05:17:58.360Z,3.20
2023-03-20T05:18:58.054Z,3.00
2023-03-20T05:19:58.049Z,2.40
2023-03-20T05:20:58.037Z,1.90
2023-03-20T05:21:58.021Z,2.00
2023-03-20T05:22:58.049Z,3.40
2023-03-20T05:23:58.010Z,2.50
2023-03-20T05:24:58.320Z,3.40
2023-03-20T05:25:58.008Z,2.40
2023-03-20T05:26:57.974Z,4.50
2023-03-20T05:27:58.041Z,2.60
2023-03-20T05:28:57.981Z,4.50
2023-03-20T05:29:57.971Z,5.30
2023-03-20T05:30:58.015Z,3.50
2023-03-20T05:31:58.212Z,2.80
2023-03-20T05:32:57.994Z,4.80
2023-03-20T05:33:57.912Z,2.60
2023-03-20T05:34:57.946Z,2.80
2023-03-20T05:35:57.975Z,3.10
2023-03-20T05:36:57.874Z,2.40
2023-03-20T05:37:57.854Z,2.80
2023-03-20T05:38:58.128Z,1.80
2023-03-20T05:39:57.837Z,2.90
2023-03-20T05:40:57.868Z,4.30
2023-03-20T05:41:57.824Z,2.90
2023-03-20T05:42:57.806Z,2.50
2023-03-20T05:43:59.900Z,3.80
2023-03-20T05:44:57.774Z,4.30
2023-03-20T05:45:57.816Z,2.90
2023-03-20T05:46:57.791Z,2.30
2023-03-20T05:47:57.758Z,3.00
2023-03-20T05:48:57.729Z,2.80
2023-03-20T05:49:57.725Z,2.80
2023-03-20T05:50:57.713Z,3.00
2023-03-20T05:51:58.013Z,2.00
2023-03-20T05:52:57.739Z,2.70
2023-03-20T05:53:57.702Z,3.60
2023-03-20T05:54:57.682Z,2.10
2023-03-20T05:55:57.676Z,3.10
2023-03-20T05:56:59.186Z,3.00
2023-03-20T05:57:57.659Z,3.50
2023-03-20T05:58:57.978Z,2.20
2023-03-20T05:59:57.640Z,2.30
2023-03-20T06:00:57.615Z,3.30
2023-03-20T06:01:57.611Z,1.60
2023-03-20T06:02:57.628Z,2.00
2023-03-20T06:03:57.648Z,3.00
2023-03-20T06:04:57.624Z,4.00
2023-03-20T06:05:57.857Z,3.40
2023-03-20T06:06:57.545Z,2.20
2023-03-20T06:07:57.552Z,2.70
2023-03-20T06:08:57.530Z,2.80
2023-03-20T06:09:57.529Z,3.00
2023-03-20T06:10:57.556Z,3.10
2023-03-20T06:11:57.518Z,1.20
2023-03-20T06:12:57.821Z,2.90
2023-03-20T06:13:57.495Z,1.90
2023-03-20T06:14:57.495Z,1.70
2023-03-20T06:15:57.585Z,2.30
2023-03-20T06:16:57.507Z,2.40
2023-03-20T06:17:57.448Z,1.80
2023-03-20T06:18:57.429Z,1.30
2023-03-20T06:19:57.705Z,1.20
2023-03-20T06:20:57.429Z,3.40
2023-03-20T06:21:57.406Z,1.50
2023-03-20T06:22:57.591Z,2.70
2023-03-20T06:23:57.385Z,2.30
2023-03-20T06:24:57.383Z,1.90
2023-03-20T06:25:57.363Z,2.70
2023-03-20T06:26:57.611Z,2.80
2023-03-20T06:27:57.353Z,2.20
2023-03-20T06:28:57.368Z,1.60
2023-03-20T06:29:57.315Z,1.70
2023-03-20T06:30:57.404Z,2.10
2023-03-20T06:31:57.296Z,1.90
2023-03-20T06:32:57.315Z,1.50
2023-03-20T06:33:57.268Z,2.10
2023-03-20T06:34:57.305Z,2.50
2023-03-20T06:35:57.307Z,1.90
2023-03-20T06:36:57.232Z,2.10
2023-03-20T06:37:57.234Z,1.50
2023-03-20T06:38:57.356Z,1.90
2023-03-20T06:39:57.500Z,1.40
2023-03-20T06:40:57.232Z,1.30
2023-03-20T06:41:57.186Z,2.90
2023-03-20T06:42:57.180Z,2.90
2023-03-20T06:43:57.174Z,1.70
2023-03-20T06:44:57.151Z,1.60
2023-03-20T06:45:57.165Z,2.10
2023-03-20T06:46:57.585Z,4.00
2023-03-20T06:47:57.151Z,1.60
2023-03-20T06:48:57.206Z,1.90
2023-03-20T06:49:57.128Z,3.40
2023-03-20T06:50:57.085Z,3.00
2023-03-20T06:51:57.103Z,1.80
2023-03-20T06:52:57.129Z,2.00
2023-03-20T06:53:57.372Z,2.20
2023-03-20T06:54:57.054Z,2.00
2023-03-20T06:55:57.038Z,1.30
2023-03-20T06:56:57.015Z,1.70
2023-03-20T06:57:57.048Z,2.80
2023-03-20T06:58:57.050Z,1.90
2023-03-20T06:59:57.013Z,1.90
2023-03-20T07:00:56.980Z,3.00
2023-03-20T07:01:57.074Z,1.90
2023-03-20T07:02:56.958Z,2.00
2023-03-20T07:03:57.083Z,1.70
2023-03-20T07:04:57.017Z,1.90
2023-03-20T07:05:56.938Z,1.70
2023-03-20T07:06:56.941Z,1.60
2023-03-20T07:07:56.932Z,2.30
2023-03-20T07:08:56.894Z,1.90
2023-03-20T07:09:56.901Z,1.20
2023-03-20T07:10:56.941Z,3.10
2023-03-20T07:11:57.247Z,2.10
2023-03-20T07:12:56.877Z,1.20
2023-03-20T07:13:56.868Z,1.10
2023-03-20T07:14:56.872Z,1.90
2023-03-20T07:16:04.109Z,2.40
2023-03-20T07:16:56.960Z,2.30
2023-03-20T07:17:56.829Z,1.80
2023-03-20T07:18:56.806Z,1.50
2023-03-20T07:19:56.803Z,1.70
2023-03-20T07:20:56.788Z,1.20
2023-03-20T07:21:56.768Z,1.80
2023-03-20T07:22:56.814Z,1.80
2023-03-20T07:23:57.072Z,1.60
2023-03-20T07:24:56.757Z,1.40
2023-03-20T07:25:56.747Z,2.90
2023-03-20T07:26:56.726Z,2.10
2023-03-20T07:27:56.735Z,1.00
2023-03-20T07:28:56.778Z,1.90
2023-03-20T07:29:56.712Z,1.90
2023-03-20T07:30:56.962Z,1.80
2023-03-20T07:31:56.675Z,1.40
2023-03-20T07:32:56.764Z,1.30
2023-03-20T07:33:56.654Z,1.90
2023-03-20T07:34:56.690Z,1.90
2023-03-20T07:35:56.671Z,1.90
2023-03-20T07:36:56.637Z,1.80
2023-03-20T07:37:58.235Z,1.20
2023-03-20T07:38:56.650Z,1.80
2023-03-20T07:39:56.585Z,1.50
2023-03-20T07:40:56.626Z,1.30
2023-03-20T07:41:56.559Z,1.60
2023-03-20T07:42:56.637Z,1.70
2023-03-20T07:43:56.553Z,0.90
2023-03-20T07:44:56.537Z,1.40
2023-03-20T07:45:56.566Z,2.50
2023-03-20T07:46:56.555Z,1.20
2023-03-20T07:47:56.521Z,1.30
2023-03-20T07:48:56.497Z,1.30
2023-03-20T07:49:56.771Z,1.70
2023-03-20T07:50:56.476Z,1.10
2023-03-20T07:51:56.542Z,2.50
2023-03-20T07:52:56.483Z,1.60
2023-03-20T07:53:56.453Z,2.20
2023-03-20T07:54:56.464Z,1.50
2023-03-20T07:55:56.428Z,1.10
2023-03-20T07:56:56.489Z,1.40
2023-03-20T07:57:56.418Z,1.30
2023-03-20T07:58:56.445Z,2.10
2023-03-20T07:59:56.407Z,2.20
2023-03-20T08:00:56.428Z,2.00
2023-03-20T08:01:56.666Z,1.60
2023-03-20T08:02:56.601Z,1.90
2023-03-20T08:03:56.494Z,1.50
2023-03-20T08:04:56.397Z,1.10
2023-03-20T08:05:56.321Z,1.70
2023-03-20T08:06:56.344Z,1.90
2023-03-20T08:07:56.317Z,2.40
2023-03-20T08:08:56.303Z,2.30
2023-03-20T08:09:56.364Z,2.00
2023-03-20T08:10:56.467Z,3.50
2023-03-20T08:11:56.261Z,1.90
2023-03-20T08:12:56.269Z,2.90
2023-03-20T08:13:56.503Z,1.10
2023-03-20T08:14:56.420Z,1.60
2023-03-20T08:15:56.210Z,3.20
2023-03-20T08:17:12.423Z,3.10
2023-03-20T08:17:56.388Z,3.10
2023-03-20T08:18:56.247Z,1.80
2023-03-20T08:19:56.249Z,2.70
2023-03-20T08:20:56.222Z,1.40
2023-03-20T08:21:56.168Z,1.80
2023-03-20T08:22:56.198Z,2.40
2023-03-20T08:23:56.110Z,1.30
2023-03-20T08:24:56.148Z,1.50
2023-03-20T08:25:56.155Z,1.70
2023-03-20T08:26:56.435Z,3.20
2023-03-20T08:27:56.072Z,2.20
2023-03-20T08:28:56.132Z,1.50
2023-03-20T08:29:56.070Z,2.20
2023-03-20T08:30:56.230Z,1.90
2023-03-20T08:31:56.174Z,2.00
2023-03-20T08:32:56.091Z,2.30
2023-03-20T08:33:56.336Z,1.90
2023-03-20T08:34:56.045Z,2.10
2023-03-20T08:35:56.106Z,2.70
2023-03-20T08:36:56.004Z,1.70
2023-03-20T08:37:56.067Z,1.30
2023-03-20T08:38:56.184Z,1.20
2023-03-20T08:39:55.997Z,2.20
2023-03-20T08:40:56.264Z,1.20
2023-03-20T08:41:56.031Z,1.70
2023-03-20T08:42:55.935Z,1.50
2023-03-20T08:43:56.002Z,1.10
2023-03-20T08:44:55.945Z,2.10
2023-03-20T08:45:55.926Z,3.30
2023-03-20T08:46:55.916Z,1.70
2023-03-20T08:47:56.168Z,1.40
2023-03-20T08:48:55.885Z,1.60
2023-03-20T08:49:55.886Z,2.40
2023-03-20T08:50:55.853Z,0.80
2023-03-20T08:51:55.825Z,1.50
2023-03-20T08:52:55.874Z,1.90
2023-03-20T08:53:55.809Z,1.40
2023-03-20T08:54:55.814Z,1.30
2023-03-20T08:55:55.796Z,1.90
2023-03-20T08:56:55.924Z,1.70
2023-03-20T08:57:55.784Z,1.60
2023-03-20T08:58:56.292Z,1.00
2023-03-20T08:59:55.731Z,1.50
2023-03-20T09:00:56.169Z,2.20
2023-03-20T09:01:55.751Z,1.50
2023-03-20T09:02:55.838Z,2.20
2023-03-20T09:03:55.700Z,1.80
2023-03-20T09:04:55.756Z,1.70
2023-03-20T09:05:55.678Z,0.90
2023-03-20T09:06:55.728Z,0.80
2023-03-20T09:07:55.653Z,1.90
2023-03-20T09:08:55.644Z,1.50
2023-03-20T09:09:55.671Z,1.20
2023-03-20T09:10:55.672Z,1.70
2023-03-20T09:11:55.605Z,2.20
2023-03-20T09:12:55.653Z,1.50
2023-03-20T09:13:55.891Z,0.80
2023-03-20T09:14:55.606Z,1.40
2023-03-20T09:15:55.744Z,1.40
2023-03-20T09:16:55.648Z,1.30
2023-03-20T09:17:55.565Z,1.20
2023-03-20T09:18:55.649Z,1.10
2023-03-20T09:19:55.586Z,1.30
2023-03-20T09:20:55.540Z,0.90
2023-03-20T09:21:55.525Z,1.90
2023-03-20T09:22:55.570Z,2.20
2023-03-20T09:23:55.503Z,1.30
2023-03-20T09:24:55.472Z,0.80
2023-03-20T09:25:55.752Z,1.30
2023-03-20T09:26:55.533Z,1.40
2023-03-20T09:27:55.471Z,0.90
2023-03-20T09:28:55.539Z,1.00
2023-03-20T09:29:55.425Z,1.30
2023-03-20T09:30:55.582Z,1.50
2023-03-20T09:31:55.463Z,1.20
2023-03-20T09:32:55.477Z,1.30
2023-03-20T09:33:55.389Z,1.20
2023-03-20T09:34:55.424Z,1.00
2023-03-20T09:35:55.438Z,0.80
2023-03-20T09:36:55.391Z,0.90
2023-03-20T09:37:55.654Z,1.20
2023-03-20T09:38:55.344Z,0.60
2023-03-20T09:39:55.360Z,1.40
2023-03-20T09:40:55.415Z,1.00
2023-03-20T09:41:57.778Z,2.10
2023-03-20T09:42:55.386Z,0.80
2023-03-20T09:43:55.340Z,0.70
2023-03-20T09:44:55.566Z,1.30
2023-03-20T09:45:55.344Z,0.90
2023-03-20T09:47:02.654Z,0.90
2023-03-20T09:47:55.256Z,1.10
2023-03-20T09:48:55.426Z,1.20
2023-03-20T09:49:55.219Z,1.10
2023-03-20T09:50:55.240Z,1.10
2023-03-20T09:51:55.552Z,1.20
2023-03-20T09:52:55.305Z,1.60
2023-03-20T09:53:57.256Z,1.00
2023-03-20T09:54:55.221Z,0.80
2023-03-20T09:55:55.214Z,1.30
2023-03-20T09:56:55.199Z,1.10
2023-03-20T09:57:55.226Z,0.80
2023-03-20T09:58:55.587Z,0.60
2023-03-20T09:59:55.149Z,0.70
2023-03-20T10:00:55.137Z,0.60
2023-03-20T10:01:55.176Z,1.40
2023-03-20T10:02:55.129Z,0.90
2023-03-20T10:03:55.112Z,0.90
2023-03-20T10:04:55.144Z,1.20
2023-03-20T10:05:55.440Z,1.50
2023-03-20T10:06:55.052Z,1.10
2023-03-20T10:07:55.061Z,1.60
2023-03-20T10:08:55.184Z,1.50
2023-03-20T10:09:55.008Z,1.60
2023-03-20T10:10:55.114Z,1.20
2023-03-20T10:11:55.039Z,1.60
2023-03-20T10:12:54.979Z,0.70
2023-03-20T10:13:54.948Z,0.90
2023-03-20T10:14:54.970Z,1.20
2023-03-20T10:15:54.984Z,1.00
2023-03-20T10:16:54.991Z,1.20
2023-03-20T10:17:55.004Z,0.80
2023-03-20T10:18:55.217Z,0.60
2023-03-20T10:19:54.909Z,0.90
2023-03-20T10:20:54.998Z,0.90
2023-03-20T10:21:54.905Z,0.90
2023-03-20T10:22:54.920Z,1.50
2023-03-20T10:23:54.872Z,0.70
2023-03-20T10:24:54.910Z,0.90
2023-03-20T10:25:55.215Z,1.30
2023-03-20T10:26:54.856Z,0.80
2023-03-20T10:27:54.840Z,0.90
2023-03-20T10:28:54.918Z,0.80
2023-03-20T10:29:54.880Z,0.90
2023-03-20T10:30:54.841Z,0.60
2023-03-20T10:31:54.816Z,0.60
2023-03-20T10:32:54.861Z,1.10
2023-03-20T10:33:55.028Z,0.80
2023-03-20T10:34:54.811Z,0.80
2023-03-20T10:35:54.755Z,1.60
2023-03-20T10:36:54.736Z,0.90
2023-03-20T10:37:54.749Z,0.90
2023-03-20T10:38:55.008Z,1.90
2023-03-20T10:39:54.686Z,0.90
2023-03-20T10:40:54.790Z,0.70
2023-03-20T10:41:54.691Z,1.10
2023-03-20T10:42:54.690Z,0.90
2023-03-20T10:43:54.710Z,0.80
2023-03-20T10:44:54.781Z,1.00
2023-03-20T10:45:54.704Z,0.70
2023-03-20T10:46:54.702Z,0.80
2023-03-20T10:47:54.693Z,1.10
2023-03-20T10:48:54.628Z,1.10
2023-03-20T10:49:54.618Z,0.70
2023-03-20T10:50:54.909Z,1.10
2023-03-20T10:51:54.790Z,1.00
2023-03-20T10:52:54.618Z,0.50
2023-03-20T10:53:54.573Z,0.80
2023-03-20T10:54:54.738Z,0.50
2023-03-20T10:55:54.551Z,0.70
2023-03-20T10:56:54.530Z,0.70
2023-03-20T10:57:54.528Z,1.10
2023-03-20T10:58:54.581Z,1.40
2023-03-20T10:59:54.559Z,0.60
2023-03-20T11:00:54.626Z,0.70
2023-03-20T11:01:54.474Z,0.90
2023-03-20T11:02:54.551Z,0.80
2023-03-20T11:03:54.494Z,2.00
2023-03-20T11:04:54.669Z,0.70
2023-03-20T11:06:08.501Z,1.60
2023-03-20T11:06:54.484Z,0.80
2023-03-20T11:07:54.514Z,0.90
2023-03-20T11:08:54.772Z,0.60
2023-03-20T11:09:54.397Z,0.70
2023-03-20T11:10:56.833Z,0.60
2023-03-20T11:11:54.445Z,1.00
2023-03-20T11:12:54.358Z,0.60
2023-03-20T11:13:55.033Z,0.80
2023-03-20T11:14:54.621Z,0.90
2023-03-20T11:15:54.759Z,0.90
2023-03-20T11:16:54.528Z,0.70
2023-03-20T11:17:54.333Z,0.80
2023-03-20T11:18:54.696Z,0.90
2023-03-20T11:19:54.478Z,1.10
2023-03-20T11:20:54.298Z,0.60
2023-03-20T11:21:54.250Z,0.60
2023-03-20T11:22:54.325Z,0.80
2023-03-20T11:23:54.231Z,0.50
2023-03-20T11:24:54.254Z,0.90
2023-03-20T11:25:54.228Z,0.70
2023-03-20T11:26:54.251Z,0.80
2023-03-20T11:27:54.542Z,0.60
2023-03-20T11:28:56.051Z,0.70
2023-03-20T11:29:54.199Z,1.20
2023-03-20T11:31:04.377Z,0.90
2023-03-20T11:31:54.223Z,0.70
2023-03-20T11:32:54.264Z,0.70
2023-03-20T11:33:54.195Z,0.80
2023-03-20T11:34:54.188Z,0.60
2023-03-20T11:35:54.142Z,0.50
2023-03-20T11:37:08.778Z,0.80
2023-03-20T11:37:54.121Z,0.90
2023-03-20T11:38:54.112Z,0.80
2023-03-20T11:39:54.661Z,0.50
2023-03-20T11:40:54.138Z,1.00
2023-03-20T11:41:54.092Z,1.00
2023-03-20T11:42:54.192Z,0.80
2023-03-20T11:43:54.152Z,0.60
2023-03-20T11:44:54.287Z,1.00
2023-03-20T11:45:54.167Z,0.80
2023-03-20T11:46:54.364Z,0.50
2023-03-20T11:47:53.993Z,0.90
2023-03-20T11:48:53.981Z,1.40
2023-03-20T11:49:54.130Z,0.50
2023-03-20T11:50:53.965Z,0.60
2023-03-20T11:51:54.107Z,0.80
2023-03-20T11:52:54.052Z,0.50
2023-03-20T11:53:54.037Z,0.60
2023-03-20T11:54:54.016Z,0.60
2023-03-20T11:55:54.146Z,0.90
2023-03-20T11:56:54.015Z,1.00
2023-03-20T11:57:53.937Z,0.80
2023-03-20T11:58:53.955Z,0.60
2023-03-20T11:59:54.204Z,0.50
2023-03-20T12:00:54.156Z,0.60
2023-03-20T12:01:53.887Z,0.60
2023-03-20T12:02:53.877Z,1.00
2023-03-20T12:03:53.919Z,0.70
2023-03-20T12:04:53.849Z,0.70
2023-03-20T12:05:54.148Z,0.50
2023-03-20T12:06:54.113Z,1.00
2023-03-20T12:07:53.978Z,1.00
2023-03-20T12:08:53.831Z,0.70
2023-03-20T12:09:53.780Z,0.90
2023-03-20T12:10:53.828Z,0.50
2023-03-20T12:11:53.766Z,0.90
2023-03-20T12:12:53.791Z,1.30
2023-03-20T12:13:53.768Z,0.70
2023-03-20T12:14:53.708Z,1.40
2023-03-20T12:15:53.811Z,1.30
2023-03-20T12:16:53.724Z,1.20
2023-03-20T12:17:53.703Z,1.00
2023-03-20T12:18:53.673Z,0.80
2023-03-20T12:19:53.780Z,0.60
2023-03-20T12:20:53.719Z,0.40
2023-03-20T12:21:53.681Z,1.10
2023-03-20T12:22:53.699Z,0.70
2023-03-20T12:23:53.643Z,0.70
2023-03-20T12:24:53.657Z,0.50
2023-03-20T12:25:53.907Z,0.70
2023-03-20T12:26:53.587Z,0.90
2023-03-20T12:27:53.570Z,1.30
2023-03-20T12:28:53.636Z,1.10
2023-03-20T12:29:53.599Z,0.90
2023-03-20T12:30:53.767Z,0.60
2023-03-20T12:31:53.528Z,0.60
2023-03-20T12:32:53.860Z,0.60
2023-03-20T12:33:53.539Z,0.70
2023-03-20T12:34:53.659Z,1.30
2023-03-20T12:35:53.528Z,0.80
2023-03-20T12:36:53.928Z,0.60
2023-03-20T12:37:53.614Z,0.40
2023-03-20T12:38:54.006Z,0.80
2023-03-20T12:39:53.806Z,0.70
2023-03-20T12:40:53.575Z,0.70
2023-03-20T12:41:53.474Z,0.60
2023-03-20T12:42:53.510Z,0.70
2023-03-20T12:43:53.432Z,0.60
2023-03-20T12:44:53.406Z,1.00
2023-03-20T12:45:53.418Z,1.00
2023-03-20T12:46:53.885Z,0.90
2023-03-20T12:47:53.384Z,0.70
2023-03-20T12:48:53.509Z,1.30
2023-03-20T12:49:53.411Z,0.50
2023-03-20T12:50:53.352Z,1.50
2023-03-20T12:51:53.323Z,0.90
2023-03-20T12:52:53.362Z,0.70
2023-03-20T12:53:53.787Z,1.70
2023-03-20T12:54:53.300Z,0.60
2023-03-20T12:55:53.288Z,1.00
2023-03-20T12:56:53.295Z,1.50
2023-03-20T12:57:53.331Z,1.80
2023-03-20T12:58:53.313Z,1.20
2023-03-20T12:59:53.250Z,1.20
2023-03-20T13:00:53.569Z,1.20
2023-03-20T13:01:53.293Z,1.10
2023-03-20T13:02:53.335Z,1.40
2023-03-20T13:03:53.241Z,0.70
2023-03-20T13:04:54.155Z,0.60
2023-03-20T13:05:53.240Z,0.80
2023-03-20T13:06:53.169Z,1.50
2023-03-20T13:07:53.172Z,0.80
2023-03-20T13:08:53.203Z,1.40
2023-03-20T13:09:53.139Z,0.80
2023-03-20T13:10:53.184Z,1.00
2023-03-20T13:11:53.123Z,2.00
2023-03-20T13:12:53.385Z,1.30
2023-03-20T13:13:53.117Z,1.70
2023-03-20T13:14:53.133Z,1.10
2023-03-20T13:15:53.225Z,0.70
2023-03-20T13:16:53.122Z,0.90
2023-03-20T13:17:54.144Z,1.20